sensor_id;sensor_type;location;lat;lon;timestamp;P1;durP1;ratioP1;P2;durP2;ratioP2
46729;SDS011;32476;50.002;11.854;2023-12-28T00:01:10;15.60;;;8.83;;
46729;SDS011;32476;50.002;11.854;2023-12-28T00:03:35;15.80;;;9.17;;
46729;SDS011;32476;50.002;11.854;2023-12-28T00:06:01;17.80;;;9.13;;
46729;SDS011;32476;50.002;11.854;2023-12-28T00:08:29;17.03;;;8.97;;
46729;SDS011;32476;50.002;11.854;2023-12-28T00:10:57;18.37;;;9.40;;
46729;SDS011;32476;50.002;11.854;2023-12-28T00:13:23;18.20;;;10.30;;
46729;SDS011;32476;50.002;11.854;2023-12-28T00:15:51;17.60;;;9.20;;
46729;SDS011;32476;50.002;11.854;2023-12-28T00:18:17;15.13;;;8.57;;
46729;SDS011;32476;50.002;11.854;2023-12-28T00:20:43;19.53;;;11.40;;
46729;SDS011;32476;50.002;11.854;2023-12-28T00:23:10;14.47;;;9.37;;
46729;SDS011;32476;50.002;11.854;2023-12-28T00:25:36;16.23;;;8.53;;
46729;SDS011;32476;50.002;11.854;2023-12-28T00:28:02;13.97;;;8.73;;
46729;SDS011;32476;50.002;11.854;2023-12-28T00:30:30;17.30;;;9.20;;
46729;SDS011;32476;50.002;11.854;2023-12-28T00:32:57;18.00;;;8.87;;
46729;SDS011;32476;50.002;11.854;2023-12-28T00:35:23;21.97;;;11.07;;
46729;SDS011;32476;50.002;11.854;2023-12-28T00:37:51;14.13;;;8.93;;
46729;SDS011;32476;50.002;11.854;2023-12-28T00:40:17;11.63;;;7.73;;
46729;SDS011;32476;50.002;11.854;2023-12-28T00:42:42;16.40;;;8.33;;
46729;SDS011;32476;50.002;11.854;2023-12-28T00:45:10;13.17;;;8.03;;
46729;SDS011;32476;50.002;11.854;2023-12-28T00:47:36;16.77;;;8.43;;
46729;SDS011;32476;50.002;11.854;2023-12-28T00:50:02;13.97;;;8.60;;
46729;SDS011;32476;50.002;11.854;2023-12-28T00:52:29;12.67;;;7.83;;
46729;SDS011;32476;50.002;11.854;2023-12-28T00:54:55;15.23;;;9.47;;
46729;SDS011;32476;50.002;11.854;2023-12-28T00:57:21;13.00;;;8.20;;
46729;SDS011;32476;50.002;11.854;2023-12-28T00:59:48;13.03;;;7.63;;
46729;SDS011;32476;50.002;11.854;2023-12-28T01:02:14;11.60;;;7.83;;
46729;SDS011;32476;50.002;11.854;2023-12-28T01:04:40;14.27;;;8.20;;
46729;SDS011;32476;50.002;11.854;2023-12-28T01:07:08;16.33;;;8.33;;
46729;SDS011;32476;50.002;11.854;2023-12-28T01:09:34;14.43;;;7.43;;
46729;SDS011;32476;50.002;11.854;2023-12-28T01:11:59;12.53;;;7.70;;
46729;SDS011;32476;50.002;11.854;2023-12-28T01:14:27;11.73;;;8.23;;
46729;SDS011;32476;50.002;11.854;2023-12-28T01:16:53;11.30;;;7.33;;
46729;SDS011;32476;50.002;11.854;2023-12-28T01:19:19;12.37;;;7.23;;
46729;SDS011;32476;50.002;11.854;2023-12-28T01:21:46;12.47;;;7.60;;
46729;SDS011;32476;50.002;11.854;2023-12-28T01:24:12;11.53;;;7.00;;
46729;SDS011;32476;50.002;11.854;2023-12-28T01:26:38;12.70;;;6.57;;
46729;SDS011;32476;50.002;11.854;2023-12-28T01:29:05;17.20;;;7.37;;
46729;SDS011;32476;50.002;11.854;2023-12-28T01:31:31;17.87;;;8.00;;
46729;SDS011;32476;50.002;11.854;2023-12-28T01:33:57;14.97;;;8.07;;
46729;SDS011;32476;50.002;11.854;2023-12-28T01:36:25;11.63;;;7.53;;
46729;SDS011;32476;50.002;11.854;2023-12-28T01:38:52;11.77;;;7.07;;
46729;SDS011;32476;50.002;11.854;2023-12-28T01:41:17;15.20;;;8.13;;
46729;SDS011;32476;50.002;11.854;2023-12-28T01:43:45;14.37;;;8.40;;
46729;SDS011;32476;50.002;11.854;2023-12-28T01:46:17;14.60;;;9.10;;
46729;SDS011;32476;50.002;11.854;2023-12-28T01:48:48;17.37;;;8.47;;
46729;SDS011;32476;50.002;11.854;2023-12-28T01:51:16;11.63;;;7.00;;
46729;SDS011;32476;50.002;11.854;2023-12-28T01:53:42;14.00;;;7.90;;
46729;SDS011;32476;50.002;11.854;2023-12-28T01:56:11;12.00;;;7.73;;
46729;SDS011;32476;50.002;11.854;2023-12-28T01:58:38;11.97;;;7.63;;
46729;SDS011;32476;50.002;11.854;2023-12-28T02:01:07;16.47;;;8.50;;
46729;SDS011;32476;50.002;11.854;2023-12-28T02:03:34;13.93;;;8.33;;
46729;SDS011;32476;50.002;11.854;2023-12-28T02:06:00;17.33;;;8.67;;
46729;SDS011;32476;50.002;11.854;2023-12-28T02:08:28;15.20;;;9.23;;
46729;SDS011;32476;50.002;11.854;2023-12-28T02:10:55;12.33;;;7.90;;
46729;SDS011;32476;50.002;11.854;2023-12-28T02:13:21;13.43;;;8.37;;
46729;SDS011;32476;50.002;11.854;2023-12-28T02:15:48;17.67;;;8.47;;
46729;SDS011;32476;50.002;11.854;2023-12-28T02:18:33;12.90;;;8.27;;
46729;SDS011;32476;50.002;11.854;2023-12-28T02:21:05;14.40;;;8.00;;
46729;SDS011;32476;50.002;11.854;2023-12-28T02:23:33;11.90;;;7.33;;
46729;SDS011;32476;50.002;11.854;2023-12-28T02:25:59;11.23;;;6.70;;
46729;SDS011;32476;50.002;11.854;2023-12-28T02:30:57;11.57;;;6.43;;
46729;SDS011;32476;50.002;11.854;2023-12-28T02:33:32;10.27;;;6.30;;
46729;SDS011;32476;50.002;11.854;2023-12-28T02:36:08;11.10;;;6.57;;
46729;SDS011;32476;50.002;11.854;2023-12-28T02:38:41;8.47;;;5.47;;
46729;SDS011;32476;50.002;11.854;2023-12-28T02:41:09;8.87;;;5.37;;
46729;SDS011;32476;50.002;11.854;2023-12-28T02:43:36;11.03;;;5.73;;
46729;SDS011;32476;50.002;11.854;2023-12-28T02:46:02;19.53;;;7.07;;
46729;SDS011;32476;50.002;11.854;2023-12-28T02:48:30;8.93;;;5.20;;
46729;SDS011;32476;50.002;11.854;2023-12-28T02:50:56;12.23;;;5.53;;
46729;SDS011;32476;50.002;11.854;2023-12-28T02:53:22;7.83;;;4.90;;
46729;SDS011;32476;50.002;11.854;2023-12-28T02:55:49;7.97;;;4.53;;
46729;SDS011;32476;50.002;11.854;2023-12-28T02:58:15;8.83;;;4.33;;
46729;SDS011;32476;50.002;11.854;2023-12-28T03:00:41;9.43;;;4.57;;
46729;SDS011;32476;50.002;11.854;2023-12-28T03:03:08;6.80;;;4.30;;
46729;SDS011;32476;50.002;11.854;2023-12-28T03:05:34;10.03;;;4.37;;
46729;SDS011;32476;50.002;11.854;2023-12-28T03:08:00;6.53;;;4.73;;
46729;SDS011;32476;50.002;11.854;2023-12-28T03:10:28;6.17;;;3.97;;
46729;SDS011;32476;50.002;11.854;2023-12-28T03:12:54;5.90;;;3.83;;
46729;SDS011;32476;50.002;11.854;2023-12-28T03:15:20;5.70;;;3.90;;
46729;SDS011;32476;50.002;11.854;2023-12-28T03:17:47;5.60;;;3.83;;
46729;SDS011;32476;50.002;11.854;2023-12-28T03:20:13;5.33;;;3.90;;
46729;SDS011;32476;50.002;11.854;2023-12-28T03:22:41;7.53;;;3.60;;
46729;SDS011;32476;50.002;11.854;2023-12-28T03:25:08;6.77;;;3.97;;
46729;SDS011;32476;50.002;11.854;2023-12-28T03:27:34;5.47;;;3.63;;
46729;SDS011;32476;50.002;11.854;2023-12-28T03:30:00;6.37;;;3.57;;
46729;SDS011;32476;50.002;11.854;2023-12-28T03:32:27;6.47;;;3.57;;
46729;SDS011;32476;50.002;11.854;2023-12-28T03:34:53;5.73;;;3.90;;
46729;SDS011;32476;50.002;11.854;2023-12-28T03:37:19;5.80;;;3.40;;
46729;SDS011;32476;50.002;11.854;2023-12-28T03:39:46;6.30;;;3.27;;
46729;SDS011;32476;50.002;11.854;2023-12-28T03:42:13;4.97;;;3.70;;
46729;SDS011;32476;50.002;11.854;2023-12-28T03:44:39;7.23;;;3.40;;
46729;SDS011;32476;50.002;11.854;2023-12-28T03:47:07;5.30;;;3.60;;
46729;SDS011;32476;50.002;11.854;2023-12-28T03:49:33;4.60;;;3.40;;
46729;SDS011;32476;50.002;11.854;2023-12-28T03:51:59;126.20;;;59.90;;
46729;SDS011;32476;50.002;11.854;2023-12-28T03:54:27;116.17;;;57.93;;
46729;SDS011;32476;50.002;11.854;2023-12-28T03:56:53;120.43;;;63.60;;
46729;SDS011;32476;50.002;11.854;2023-12-28T03:59:19;117.13;;;59.67;;
46729;SDS011;32476;50.002;11.854;2023-12-28T04:01:46;66.83;;;34.87;;
46729;SDS011;32476;50.002;11.854;2023-12-28T04:04:12;10.43;;;7.37;;
46729;SDS011;32476;50.002;11.854;2023-12-28T04:06:38;23.83;;;14.77;;
46729;SDS011;32476;50.002;11.854;2023-12-28T04:09:08;22.73;;;12.63;;
46729;SDS011;32476;50.002;11.854;2023-12-28T04:11:36;9.60;;;5.70;;
46729;SDS011;32476;50.002;11.854;2023-12-28T04:14:03;6.50;;;3.80;;
46729;SDS011;32476;50.002;11.854;2023-12-28T04:16:30;5.87;;;3.97;;
46729;SDS011;32476;50.002;11.854;2023-12-28T04:18:56;6.43;;;4.20;;
46729;SDS011;32476;50.002;11.854;2023-12-28T04:21:22;8.47;;;4.47;;
46729;SDS011;32476;50.002;11.854;2023-12-28T04:23:50;8.00;;;4.20;;
46729;SDS011;32476;50.002;11.854;2023-12-28T04:26:19;7.43;;;4.73;;
46729;SDS011;32476;50.002;11.854;2023-12-28T04:28:47;7.57;;;4.53;;
46729;SDS011;32476;50.002;11.854;2023-12-28T04:31:15;6.43;;;4.00;;
46729;SDS011;32476;50.002;11.854;2023-12-28T04:33:41;6.43;;;4.30;;
46729;SDS011;32476;50.002;11.854;2023-12-28T04:36:07;5.73;;;4.10;;
46729;SDS011;32476;50.002;11.854;2023-12-28T04:38:34;7.97;;;4.57;;
46729;SDS011;32476;50.002;11.854;2023-12-28T04:41:00;5.27;;;3.57;;
46729;SDS011;32476;50.002;11.854;2023-12-28T04:43:26;7.87;;;4.07;;
46729;SDS011;32476;50.002;11.854;2023-12-28T04:45:54;8.50;;;3.83;;
46729;SDS011;32476;50.002;11.854;2023-12-28T04:48:20;6.53;;;3.77;;
46729;SDS011;32476;50.002;11.854;2023-12-28T04:50:49;4.57;;;3.80;;
46729;SDS011;32476;50.002;11.854;2023-12-28T04:53:17;6.73;;;4.27;;
46729;SDS011;32476;50.002;11.854;2023-12-28T04:55:43;5.37;;;3.30;;
46729;SDS011;32476;50.002;11.854;2023-12-28T04:58:10;6.27;;;3.50;;
46729;SDS011;32476;50.002;11.854;2023-12-28T05:00:39;6.43;;;3.77;;
46729;SDS011;32476;50.002;11.854;2023-12-28T05:03:05;8.07;;;4.03;;
46729;SDS011;32476;50.002;11.854;2023-12-28T05:05:31;5.97;;;4.00;;
46729;SDS011;32476;50.002;11.854;2023-12-28T05:08:00;5.70;;;3.87;;
46729;SDS011;32476;50.002;11.854;2023-12-28T05:10:26;7.37;;;4.37;;
46729;SDS011;32476;50.002;11.854;2023-12-28T05:12:52;8.10;;;3.50;;
46729;SDS011;32476;50.002;11.854;2023-12-28T05:15:19;5.20;;;2.70;;
46729;SDS011;32476;50.002;11.854;2023-12-28T05:17:45;4.73;;;3.13;;
46729;SDS011;32476;50.002;11.854;2023-12-28T05:20:11;4.17;;;2.70;;
46729;SDS011;32476;50.002;11.854;2023-12-28T05:22:39;5.83;;;2.93;;
46729;SDS011;32476;50.002;11.854;2023-12-28T05:25:05;5.23;;;2.70;;
46729;SDS011;32476;50.002;11.854;2023-12-28T05:27:31;4.73;;;2.30;;
46729;SDS011;32476;50.002;11.854;2023-12-28T05:29:58;4.03;;;2.63;;
46729;SDS011;32476;50.002;11.854;2023-12-28T05:32:24;4.23;;;2.63;;
46729;SDS011;32476;50.002;11.854;2023-12-28T05:34:50;4.10;;;2.70;;
46729;SDS011;32476;50.002;11.854;2023-12-28T05:37:18;4.83;;;2.40;;
46729;SDS011;32476;50.002;11.854;2023-12-28T05:39:44;4.57;;;2.73;;
46729;SDS011;32476;50.002;11.854;2023-12-28T05:42:09;4.40;;;2.43;;
46729;SDS011;32476;50.002;11.854;2023-12-28T05:44:37;3.33;;;2.50;;
46729;SDS011;32476;50.002;11.854;2023-12-28T05:47:03;3.73;;;2.20;;
46729;SDS011;32476;50.002;11.854;2023-12-28T05:49:29;4.23;;;2.63;;
46729;SDS011;32476;50.002;11.854;2023-12-28T05:51:57;4.07;;;2.47;;
46729;SDS011;32476;50.002;11.854;2023-12-28T05:54:23;4.27;;;2.60;;
46729;SDS011;32476;50.002;11.854;2023-12-28T05:56:49;3.33;;;2.67;;
46729;SDS011;32476;50.002;11.854;2023-12-28T05:59:16;3.87;;;2.50;;
46729;SDS011;32476;50.002;11.854;2023-12-28T06:01:43;4.70;;;2.57;;
46729;SDS011;32476;50.002;11.854;2023-12-28T06:04:09;5.93;;;2.30;;
46729;SDS011;32476;50.002;11.854;2023-12-28T06:06:37;6.83;;;2.50;;
46729;SDS011;32476;50.002;11.854;2023-12-28T06:09:03;3.90;;;2.50;;
46729;SDS011;32476;50.002;11.854;2023-12-28T06:11:29;3.87;;;2.60;;
46729;SDS011;32476;50.002;11.854;2023-12-28T06:13:57;3.90;;;2.70;;
46729;SDS011;32476;50.002;11.854;2023-12-28T06:16:23;4.67;;;3.07;;
46729;SDS011;32476;50.002;11.854;2023-12-28T06:18:50;3.90;;;2.90;;
46729;SDS011;32476;50.002;11.854;2023-12-28T06:21:23;5.70;;;3.40;;
46729;SDS011;32476;50.002;11.854;2023-12-28T06:23:49;4.77;;;2.90;;
46729;SDS011;32476;50.002;11.854;2023-12-28T06:26:15;3.70;;;2.50;;
46729;SDS011;32476;50.002;11.854;2023-12-28T06:28:42;3.77;;;2.13;;
46729;SDS011;32476;50.002;11.854;2023-12-28T06:31:08;5.13;;;2.00;;
46729;SDS011;32476;50.002;11.854;2023-12-28T06:33:34;6.07;;;2.00;;
46729;SDS011;32476;50.002;11.854;2023-12-28T06:36:05;4.73;;;2.30;;
46729;SDS011;32476;50.002;11.854;2023-12-28T06:38:32;3.00;;;2.10;;
46729;SDS011;32476;50.002;11.854;2023-12-28T06:40:58;4.87;;;2.57;;
46729;SDS011;32476;50.002;11.854;2023-12-28T06:43:26;3.73;;;2.40;;
46729;SDS011;32476;50.002;11.854;2023-12-28T06:45:51;2.87;;;2.00;;
46729;SDS011;32476;50.002;11.854;2023-12-28T06:48:18;4.73;;;2.37;;
46729;SDS011;32476;50.002;11.854;2023-12-28T06:50:45;3.23;;;1.87;;
46729;SDS011;32476;50.002;11.854;2023-12-28T06:53:11;3.10;;;2.10;;
46729;SDS011;32476;50.002;11.854;2023-12-28T06:55:37;3.50;;;2.13;;
46729;SDS011;32476;50.002;11.854;2023-12-28T06:58:04;3.63;;;2.20;;
46729;SDS011;32476;50.002;11.854;2023-12-28T07:00:32;3.60;;;2.53;;
46729;SDS011;32476;50.002;11.854;2023-12-28T07:02:58;3.63;;;2.17;;
46729;SDS011;32476;50.002;11.854;2023-12-28T07:05:26;3.40;;;2.03;;
46729;SDS011;32476;50.002;11.854;2023-12-28T07:07:51;4.00;;;2.50;;
46729;SDS011;32476;50.002;11.854;2023-12-28T07:10:18;2.47;;;2.03;;
46729;SDS011;32476;50.002;11.854;2023-12-28T07:12:45;7.20;;;2.20;;
46729;SDS011;32476;50.002;11.854;2023-12-28T07:15:11;3.77;;;2.30;;
46729;SDS011;32476;50.002;11.854;2023-12-28T07:17:40;4.33;;;2.63;;
46729;SDS011;32476;50.002;11.854;2023-12-28T07:20:08;3.40;;;1.90;;
46729;SDS011;32476;50.002;11.854;2023-12-28T07:22:37;4.10;;;2.43;;
46729;SDS011;32476;50.002;11.854;2023-12-28T07:25:07;3.17;;;2.17;;
46729;SDS011;32476;50.002;11.854;2023-12-28T07:27:34;3.23;;;2.03;;
46729;SDS011;32476;50.002;11.854;2023-12-28T07:32:58;5.93;;;2.37;;
46729;SDS011;32476;50.002;11.854;2023-12-28T07:35:24;4.03;;;2.50;;
46729;SDS011;32476;50.002;11.854;2023-12-28T07:37:50;4.47;;;2.40;;
46729;SDS011;32476;50.002;11.854;2023-12-28T07:40:17;3.87;;;2.60;;
46729;SDS011;32476;50.002;11.854;2023-12-28T07:42:44;3.47;;;2.20;;
46729;SDS011;32476;50.002;11.854;2023-12-28T07:45:10;4.67;;;2.27;;
46729;SDS011;32476;50.002;11.854;2023-12-28T07:47:38;5.20;;;2.63;;
46729;SDS011;32476;50.002;11.854;2023-12-28T07:50:04;4.20;;;2.20;;
46729;SDS011;32476;50.002;11.854;2023-12-28T07:52:30;3.47;;;2.50;;
46729;SDS011;32476;50.002;11.854;2023-12-28T07:57:53;2.87;;;2.07;;
46729;SDS011;32476;50.002;11.854;2023-12-28T08:03:17;5.43;;;2.70;;
46729;SDS011;32476;50.002;11.854;2023-12-28T08:05:44;5.40;;;2.60;;
46729;SDS011;32476;50.002;11.854;2023-12-28T08:08:10;3.33;;;2.40;;
46729;SDS011;32476;50.002;11.854;2023-12-28T08:10:36;8.07;;;4.93;;
46729;SDS011;32476;50.002;11.854;2023-12-28T08:13:04;4.50;;;2.43;;
46729;SDS011;32476;50.002;11.854;2023-12-28T08:15:29;4.53;;;2.53;;
46729;SDS011;32476;50.002;11.854;2023-12-28T08:17:55;2.63;;;2.17;;
46729;SDS011;32476;50.002;11.854;2023-12-28T08:20:23;3.73;;;2.50;;
46729;SDS011;32476;50.002;11.854;2023-12-28T08:22:49;5.17;;;2.30;;
46729;SDS011;32476;50.002;11.854;2023-12-28T08:25:15;3.97;;;2.30;;
46729;SDS011;32476;50.002;11.854;2023-12-28T08:27:42;3.60;;;2.17;;
46729;SDS011;32476;50.002;11.854;2023-12-28T08:30:08;4.07;;;2.37;;
46729;SDS011;32476;50.002;11.854;2023-12-28T08:32:35;4.47;;;2.30;;
46729;SDS011;32476;50.002;11.854;2023-12-28T08:35:02;3.37;;;2.40;;
46729;SDS011;32476;50.002;11.854;2023-12-28T08:37:30;5.70;;;2.30;;
46729;SDS011;32476;50.002;11.854;2023-12-28T08:39:56;6.50;;;2.53;;
46729;SDS011;32476;50.002;11.854;2023-12-28T08:42:24;5.07;;;2.63;;
46729;SDS011;32476;50.002;11.854;2023-12-28T08:44:50;5.37;;;2.33;;
46729;SDS011;32476;50.002;11.854;2023-12-28T08:47:17;5.77;;;2.13;;
46729;SDS011;32476;50.002;11.854;2023-12-28T08:49:44;3.60;;;2.23;;
46729;SDS011;32476;50.002;11.854;2023-12-28T08:52:10;4.07;;;2.13;;
46729;SDS011;32476;50.002;11.854;2023-12-28T08:54:36;5.30;;;2.03;;
46729;SDS011;32476;50.002;11.854;2023-12-28T08:57:04;2.43;;;2.00;;
46729;SDS011;32476;50.002;11.854;2023-12-28T08:59:29;4.07;;;2.20;;
46729;SDS011;32476;50.002;11.854;2023-12-28T09:01:55;5.67;;;2.43;;
46729;SDS011;32476;50.002;11.854;2023-12-28T09:04:23;2.90;;;2.17;;
46729;SDS011;32476;50.002;11.854;2023-12-28T09:06:49;6.07;;;2.17;;
46729;SDS011;32476;50.002;11.854;2023-12-28T09:09:15;5.03;;;2.20;;
46729;SDS011;32476;50.002;11.854;2023-12-28T09:11:42;5.03;;;2.70;;
46729;SDS011;32476;50.002;11.854;2023-12-28T09:14:08;4.90;;;2.40;;
46729;SDS011;32476;50.002;11.854;2023-12-28T09:16:34;5.17;;;2.63;;
46729;SDS011;32476;50.002;11.854;2023-12-28T09:19:02;4.00;;;2.10;;
46729;SDS011;32476;50.002;11.854;2023-12-28T09:21:27;3.83;;;2.40;;
46729;SDS011;32476;50.002;11.854;2023-12-28T09:23:53;3.20;;;2.47;;
46729;SDS011;32476;50.002;11.854;2023-12-28T09:26:21;3.50;;;2.63;;
46729;SDS011;32476;50.002;11.854;2023-12-28T09:28:47;4.40;;;2.63;;
46729;SDS011;32476;50.002;11.854;2023-12-28T09:31:12;3.03;;;2.10;;
46729;SDS011;32476;50.002;11.854;2023-12-28T09:33:40;5.37;;;2.30;;
46729;SDS011;32476;50.002;11.854;2023-12-28T09:36:06;2.63;;;2.10;;
46729;SDS011;32476;50.002;11.854;2023-12-28T09:38:33;4.00;;;2.00;;
46729;SDS011;32476;50.002;11.854;2023-12-28T09:41:04;3.27;;;2.20;;
46729;SDS011;32476;50.002;11.854;2023-12-28T09:43:39;3.67;;;2.40;;
46729;SDS011;32476;50.002;11.854;2023-12-28T09:46:22;4.80;;;2.20;;
46729;SDS011;32476;50.002;11.854;2023-12-28T09:48:48;3.77;;;2.37;;
46729;SDS011;32476;50.002;11.854;2023-12-28T09:51:15;2.87;;;2.13;;
46729;SDS011;32476;50.002;11.854;2023-12-28T09:53:44;4.80;;;2.30;;
46729;SDS011;32476;50.002;11.854;2023-12-28T09:56:10;5.67;;;2.10;;
46729;SDS011;32476;50.002;11.854;2023-12-28T09:58:39;2.70;;;2.20;;
46729;SDS011;32476;50.002;11.854;2023-12-28T10:01:08;3.13;;;2.20;;
46729;SDS011;32476;50.002;11.854;2023-12-28T10:03:36;3.10;;;2.20;;
46729;SDS011;32476;50.002;11.854;2023-12-28T10:06:02;2.67;;;2.37;;
46729;SDS011;32476;50.002;11.854;2023-12-28T10:08:30;4.97;;;2.40;;
46729;SDS011;32476;50.002;11.854;2023-12-28T10:10:56;2.97;;;2.10;;
46729;SDS011;32476;50.002;11.854;2023-12-28T10:13:24;4.70;;;2.20;;
46729;SDS011;32476;50.002;11.854;2023-12-28T10:15:52;4.33;;;2.33;;
46729;SDS011;32476;50.002;11.854;2023-12-28T10:18:22;2.70;;;2.20;;
46729;SDS011;32476;50.002;11.854;2023-12-28T10:20:52;2.97;;;2.57;;
46729;SDS011;32476;50.002;11.854;2023-12-28T10:23:21;4.00;;;2.33;;
46729;SDS011;32476;50.002;11.854;2023-12-28T10:25:50;4.60;;;2.23;;
46729;SDS011;32476;50.002;11.854;2023-12-28T10:28:18;6.30;;;2.00;;
46729;SDS011;32476;50.002;11.854;2023-12-28T10:30:46;4.43;;;2.53;;
46729;SDS011;32476;50.002;11.854;2023-12-28T10:33:15;6.57;;;2.90;;
46729;SDS011;32476;50.002;11.854;2023-12-28T10:35:44;3.70;;;2.70;;
46729;SDS011;32476;50.002;11.854;2023-12-28T10:38:13;2.97;;;2.43;;
46729;SDS011;32476;50.002;11.854;2023-12-28T10:40:42;5.63;;;2.43;;
46729;SDS011;32476;50.002;11.854;2023-12-28T10:43:14;4.90;;;2.77;;
46729;SDS011;32476;50.002;11.854;2023-12-28T10:45:44;4.00;;;2.40;;
46729;SDS011;32476;50.002;11.854;2023-12-28T10:48:19;5.03;;;3.00;;
46729;SDS011;32476;50.002;11.854;2023-12-28T10:50:55;3.27;;;2.57;;
46729;SDS011;32476;50.002;11.854;2023-12-28T10:56:36;5.30;;;3.10;;
46729;SDS011;32476;50.002;11.854;2023-12-28T11:02:14;5.40;;;4.00;;
46729;SDS011;32476;50.002;11.854;2023-12-28T11:04:48;4.30;;;3.23;;
46729;SDS011;32476;50.002;11.854;2023-12-28T11:07:17;8.00;;;3.90;;
46729;SDS011;32476;50.002;11.854;2023-12-28T11:09:44;5.77;;;3.70;;
46729;SDS011;32476;50.002;11.854;2023-12-28T11:12:12;5.70;;;3.67;;
46729;SDS011;32476;50.002;11.854;2023-12-28T11:14:39;4.90;;;3.70;;
46729;SDS011;32476;50.002;11.854;2023-12-28T11:17:07;7.50;;;3.73;;
46729;SDS011;32476;50.002;11.854;2023-12-28T11:19:37;4.60;;;3.40;;
46729;SDS011;32476;50.002;11.854;2023-12-28T11:22:03;7.70;;;3.10;;
46729;SDS011;32476;50.002;11.854;2023-12-28T11:24:30;6.30;;;4.10;;
46729;SDS011;32476;50.002;11.854;2023-12-28T11:26:58;4.87;;;3.70;;
46729;SDS011;32476;50.002;11.854;2023-12-28T11:29:25;6.93;;;4.03;;
46729;SDS011;32476;50.002;11.854;2023-12-28T11:31:51;5.57;;;3.90;;
46729;SDS011;32476;50.002;11.854;2023-12-28T11:34:30;8.10;;;4.50;;
46729;SDS011;32476;50.002;11.854;2023-12-28T11:37:01;5.90;;;4.27;;
46729;SDS011;32476;50.002;11.854;2023-12-28T11:39:34;6.20;;;3.90;;
46729;SDS011;32476;50.002;11.854;2023-12-28T11:42:06;6.53;;;4.10;;
46729;SDS011;32476;50.002;11.854;2023-12-28T11:44:38;7.07;;;4.27;;
46729;SDS011;32476;50.002;11.854;2023-12-28T11:47:13;5.43;;;4.50;;
46729;SDS011;32476;50.002;11.854;2023-12-28T11:49:43;6.33;;;4.60;;
46729;SDS011;32476;50.002;11.854;2023-12-28T11:54:51;10.17;;;4.60;;
46729;SDS011;32476;50.002;11.854;2023-12-28T11:57:18;7.73;;;4.63;;
46729;SDS011;32476;50.002;11.854;2023-12-28T11:59:43;5.67;;;4.77;;
46729;SDS011;32476;50.002;11.854;2023-12-28T12:02:11;6.13;;;4.10;;
46729;SDS011;32476;50.002;11.854;2023-12-28T12:04:37;5.80;;;4.33;;
46729;SDS011;32476;50.002;11.854;2023-12-28T12:07:03;6.13;;;4.50;;
46729;SDS011;32476;50.002;11.854;2023-12-28T12:09:31;11.53;;;4.53;;
46729;SDS011;32476;50.002;11.854;2023-12-28T12:12:03;6.27;;;4.73;;
46729;SDS011;32476;50.002;11.854;2023-12-28T12:14:30;7.53;;;4.70;;
46729;SDS011;32476;50.002;11.854;2023-12-28T12:16:57;8.10;;;4.60;;
46729;SDS011;32476;50.002;11.854;2023-12-28T12:19:24;8.03;;;4.30;;
46729;SDS011;32476;50.002;11.854;2023-12-28T12:21:53;6.27;;;4.40;;
46729;SDS011;32476;50.002;11.854;2023-12-28T12:24:23;6.17;;;4.80;;
46729;SDS011;32476;50.002;11.854;2023-12-28T12:26:50;6.20;;;4.27;;
46729;SDS011;32476;50.002;11.854;2023-12-28T12:29:17;6.73;;;4.30;;
46729;SDS011;32476;50.002;11.854;2023-12-28T12:31:46;6.33;;;4.60;;
46729;SDS011;32476;50.002;11.854;2023-12-28T12:34:15;5.57;;;4.60;;
46729;SDS011;32476;50.002;11.854;2023-12-28T12:36:42;5.90;;;3.90;;
46729;SDS011;32476;50.002;11.854;2023-12-28T12:39:10;6.93;;;4.13;;
46729;SDS011;32476;50.002;11.854;2023-12-28T12:41:36;4.87;;;3.93;;
46729;SDS011;32476;50.002;11.854;2023-12-28T12:44:05;5.60;;;4.23;;
46729;SDS011;32476;50.002;11.854;2023-12-28T12:46:32;7.33;;;4.57;;
46729;SDS011;32476;50.002;11.854;2023-12-28T12:49:00;4.80;;;3.97;;
46729;SDS011;32476;50.002;11.854;2023-12-28T12:51:27;5.57;;;4.60;;
46729;SDS011;32476;50.002;11.854;2023-12-28T12:53:59;7.37;;;4.50;;
46729;SDS011;32476;50.002;11.854;2023-12-28T12:56:28;14.43;;;4.43;;
46729;SDS011;32476;50.002;11.854;2023-12-28T12:58:57;6.87;;;4.57;;
46729;SDS011;32476;50.002;11.854;2023-12-28T13:01:23;7.97;;;5.17;;
46729;SDS011;32476;50.002;11.854;2023-12-28T13:03:50;7.53;;;5.00;;
46729;SDS011;32476;50.002;11.854;2023-12-28T13:06:18;9.67;;;4.90;;
46729;SDS011;32476;50.002;11.854;2023-12-28T13:08:48;6.17;;;4.67;;
46729;SDS011;32476;50.002;11.854;2023-12-28T13:11:14;10.13;;;5.00;;
46729;SDS011;32476;50.002;11.854;2023-12-28T13:13:42;11.87;;;5.40;;
46729;SDS011;32476;50.002;11.854;2023-12-28T13:16:08;5.93;;;4.93;;
46729;SDS011;32476;50.002;11.854;2023-12-28T13:18:34;7.10;;;5.13;;
46729;SDS011;32476;50.002;11.854;2023-12-28T13:21:02;7.63;;;4.70;;
46729;SDS011;32476;50.002;11.854;2023-12-28T13:23:28;7.20;;;4.13;;
46729;SDS011;32476;50.002;11.854;2023-12-28T13:25:54;4.57;;;3.87;;
46729;SDS011;32476;50.002;11.854;2023-12-28T13:28:21;6.37;;;4.10;;
46729;SDS011;32476;50.002;11.854;2023-12-28T13:30:47;6.00;;;4.00;;
46729;SDS011;32476;50.002;11.854;2023-12-28T13:33:16;5.50;;;3.63;;
46729;SDS011;32476;50.002;11.854;2023-12-28T13:35:44;5.90;;;3.87;;
46729;SDS011;32476;50.002;11.854;2023-12-28T13:38:10;4.87;;;3.40;;
46729;SDS011;32476;50.002;11.854;2023-12-28T13:40:35;4.43;;;3.83;;
46729;SDS011;32476;50.002;11.854;2023-12-28T13:43:03;4.77;;;3.67;;
46729;SDS011;32476;50.002;11.854;2023-12-28T13:45:29;7.50;;;3.60;;
46729;SDS011;32476;50.002;11.854;2023-12-28T13:47:55;5.07;;;3.33;;
46729;SDS011;32476;50.002;11.854;2023-12-28T13:50:22;6.57;;;3.43;;
46729;SDS011;32476;50.002;11.854;2023-12-28T13:52:48;4.23;;;3.00;;
46729;SDS011;32476;50.002;11.854;2023-12-28T13:55:14;4.03;;;3.20;;
46729;SDS011;32476;50.002;11.854;2023-12-28T13:57:42;6.83;;;3.00;;
46729;SDS011;32476;50.002;11.854;2023-12-28T14:00:08;8.97;;;3.63;;
46729;SDS011;32476;50.002;11.854;2023-12-28T14:02:34;3.90;;;3.20;;
46729;SDS011;32476;50.002;11.854;2023-12-28T14:05:01;5.77;;;3.60;;
46729;SDS011;32476;50.002;11.854;2023-12-28T14:07:28;3.83;;;2.90;;
46729;SDS011;32476;50.002;11.854;2023-12-28T14:09:53;5.10;;;2.90;;
46729;SDS011;32476;50.002;11.854;2023-12-28T14:12:21;4.00;;;2.87;;
46729;SDS011;32476;50.002;11.854;2023-12-28T14:14:47;6.57;;;3.43;;
46729;SDS011;32476;50.002;11.854;2023-12-28T14:17:13;5.40;;;2.97;;
46729;SDS011;32476;50.002;11.854;2023-12-28T14:19:42;4.93;;;2.77;;
46729;SDS011;32476;50.002;11.854;2023-12-28T14:22:08;3.97;;;2.83;;
46729;SDS011;32476;50.002;11.854;2023-12-28T14:24:34;7.40;;;3.13;;
46729;SDS011;32476;50.002;11.854;2023-12-28T14:27:02;3.23;;;2.87;;
46729;SDS011;32476;50.002;11.854;2023-12-28T14:29:29;4.33;;;3.33;;
46729;SDS011;32476;50.002;11.854;2023-12-28T14:31:55;3.57;;;2.87;;
46729;SDS011;32476;50.002;11.854;2023-12-28T14:34:23;4.70;;;2.90;;
46729;SDS011;32476;50.002;11.854;2023-12-28T14:36:50;4.63;;;3.40;;
46729;SDS011;32476;50.002;11.854;2023-12-28T14:39:17;6.77;;;3.63;;
46729;SDS011;32476;50.002;11.854;2023-12-28T14:41:45;5.20;;;3.17;;
46729;SDS011;32476;50.002;11.854;2023-12-28T14:44:12;4.47;;;2.77;;
46729;SDS011;32476;50.002;11.854;2023-12-28T14:46:37;6.40;;;3.17;;
46729;SDS011;32476;50.002;11.854;2023-12-28T14:49:05;3.17;;;2.67;;
46729;SDS011;32476;50.002;11.854;2023-12-28T14:51:31;6.53;;;3.00;;